sensor_id;sensor_type;location;lat;lon;timestamp;P1;durP1;ratioP1;P2;durP2;ratioP2
26756;SDS011;23848;49.798;10.228;2023-03-03T00:01:05;23.83;;;12.43;;
26756;SDS011;23848;49.798;10.228;2023-03-03T00:03:35;18.88;;;12.40;;
26756;SDS011;23848;49.798;10.228;2023-03-03T00:06:07;18.65;;;12.32;;
26756;SDS011;23848;49.798;10.228;2023-03-03T00:08:36;20.95;;;11.00;;
26756;SDS011;23848;49.798;10.228;2023-03-03T00:11:04;19.27;;;11.73;;
26756;SDS011;23848;49.798;10.228;2023-03-03T00:13:36;19.05;;;10.73;;
26756;SDS011;23848;49.798;10.228;2023-03-03T00:16:11;21.83;;;11.07;;
26756;SDS011;23848;49.798;10.228;2023-03-03T00:21:17;18.50;;;10.20;;
26756;SDS011;23848;49.798;10.228;2023-03-03T00:23:47;21.50;;;11.73;;
26756;SDS011;23848;49.798;10.228;2023-03-03T00:26:17;19.60;;;10.73;;
26756;SDS011;23848;49.798;10.228;2023-03-03T00:28:48;19.60;;;11.13;;
26756;SDS011;23848;49.798;10.228;2023-03-03T00:31:17;20.08;;;11.25;;
26756;SDS011;23848;49.798;10.228;2023-03-03T00:33:46;21.70;;;10.93;;
26756;SDS011;23848;49.798;10.228;2023-03-03T00:36:26;20.40;;;11.75;;
26756;SDS011;23848;49.798;10.228;2023-03-03T00:38:59;19.30;;;10.52;;
26756;SDS011;23848;49.798;10.228;2023-03-03T00:41:37;21.60;;;12.20;;
26756;SDS011;23848;49.798;10.228;2023-03-03T00:44:25;19.75;;;12.13;;
26756;SDS011;23848;49.798;10.228;2023-03-03T00:46:57;17.90;;;10.48;;
26756;SDS011;23848;49.798;10.228;2023-03-03T00:49:29;19.42;;;11.23;;
26756;SDS011;23848;49.798;10.228;2023-03-03T00:51:58;19.77;;;11.02;;
26756;SDS011;23848;49.798;10.228;2023-03-03T00:54:27;18.50;;;10.85;;
26756;SDS011;23848;49.798;10.228;2023-03-03T00:56:55;19.20;;;11.05;;
26756;SDS011;23848;49.798;10.228;2023-03-03T00:59:23;18.08;;;10.10;;
26756;SDS011;23848;49.798;10.228;2023-03-03T01:01:51;22.75;;;11.18;;
26756;SDS011;23848;49.798;10.228;2023-03-03T01:04:20;20.80;;;11.23;;
26756;SDS011;23848;49.798;10.228;2023-03-03T01:06:48;20.65;;;12.20;;
26756;SDS011;23848;49.798;10.228;2023-03-03T01:09:18;19.95;;;10.18;;
26756;SDS011;23848;49.798;10.228;2023-03-03T01:11:46;19.45;;;11.13;;
26756;SDS011;23848;49.798;10.228;2023-03-03T01:14:15;22.88;;;11.48;;
26756;SDS011;23848;49.798;10.228;2023-03-03T01:16:43;20.77;;;12.32;;
26756;SDS011;23848;49.798;10.228;2023-03-03T01:19:12;21.20;;;10.88;;
26756;SDS011;23848;49.798;10.228;2023-03-03T01:21:40;23.40;;;12.95;;
26756;SDS011;23848;49.798;10.228;2023-03-03T01:24:09;20.15;;;11.27;;
26756;SDS011;23848;49.798;10.228;2023-03-03T01:26:38;22.48;;;12.48;;
26756;SDS011;23848;49.798;10.228;2023-03-03T01:29:07;24.52;;;11.93;;
26756;SDS011;23848;49.798;10.228;2023-03-03T01:31:35;21.35;;;10.80;;
26756;SDS011;23848;49.798;10.228;2023-03-03T01:34:03;21.13;;;11.38;;
26756;SDS011;23848;49.798;10.228;2023-03-03T01:36:32;18.35;;;10.95;;
26756;SDS011;23848;49.798;10.228;2023-03-03T01:39:02;19.58;;;11.57;;
26756;SDS011;23848;49.798;10.228;2023-03-03T01:41:31;19.65;;;10.60;;
26756;SDS011;23848;49.798;10.228;2023-03-03T01:44:01;19.23;;;11.45;;
26756;SDS011;23848;49.798;10.228;2023-03-03T01:46:34;20.90;;;11.50;;
26756;SDS011;23848;49.798;10.228;2023-03-03T01:49:06;20.55;;;10.90;;
26756;SDS011;23848;49.798;10.228;2023-03-03T01:51:35;21.02;;;10.20;;
26756;SDS011;23848;49.798;10.228;2023-03-03T01:54:06;22.38;;;11.23;;
26756;SDS011;23848;49.798;10.228;2023-03-03T01:56:37;21.35;;;11.18;;
26756;SDS011;23848;49.798;10.228;2023-03-03T01:59:08;19.65;;;11.55;;
26756;SDS011;23848;49.798;10.228;2023-03-03T02:01:38;21.50;;;11.43;;
26756;SDS011;23848;49.798;10.228;2023-03-03T02:04:07;25.20;;;12.43;;
26756;SDS011;23848;49.798;10.228;2023-03-03T02:06:37;22.73;;;11.95;;
26756;SDS011;23848;49.798;10.228;2023-03-03T02:09:09;22.90;;;12.30;;
26756;SDS011;23848;49.798;10.228;2023-03-03T02:11:39;23.10;;;11.75;;
26756;SDS011;23848;49.798;10.228;2023-03-03T02:14:10;23.08;;;12.30;;
26756;SDS011;23848;49.798;10.228;2023-03-03T02:16:39;20.60;;;10.88;;
26756;SDS011;23848;49.798;10.228;2023-03-03T02:19:09;22.58;;;12.82;;
26756;SDS011;23848;49.798;10.228;2023-03-03T02:21:39;19.73;;;10.68;;
26756;SDS011;23848;49.798;10.228;2023-03-03T02:24:10;22.92;;;11.07;;
26756;SDS011;23848;49.798;10.228;2023-03-03T02:26:41;22.63;;;11.52;;
26756;SDS011;23848;49.798;10.228;2023-03-03T02:29:12;20.38;;;12.23;;
26756;SDS011;23848;49.798;10.228;2023-03-03T02:31:40;20.85;;;11.65;;
26756;SDS011;23848;49.798;10.228;2023-03-03T02:34:09;25.75;;;12.65;;
26756;SDS011;23848;49.798;10.228;2023-03-03T02:36:38;23.33;;;12.00;;
26756;SDS011;23848;49.798;10.228;2023-03-03T02:39:07;20.77;;;11.73;;
26756;SDS011;23848;49.798;10.228;2023-03-03T02:41:38;24.17;;;12.18;;
26756;SDS011;23848;49.798;10.228;2023-03-03T02:44:09;22.80;;;11.85;;
26756;SDS011;23848;49.798;10.228;2023-03-03T02:46:39;24.10;;;12.63;;
26756;SDS011;23848;49.798;10.228;2023-03-03T02:49:08;20.55;;;11.25;;
26756;SDS011;23848;49.798;10.228;2023-03-03T02:51:37;22.67;;;12.25;;
26756;SDS011;23848;49.798;10.228;2023-03-03T02:54:05;21.58;;;11.13;;
26756;SDS011;23848;49.798;10.228;2023-03-03T02:56:34;23.85;;;12.57;;
26756;SDS011;23848;49.798;10.228;2023-03-03T02:59:03;22.27;;;12.48;;
26756;SDS011;23848;49.798;10.228;2023-03-03T03:01:33;24.35;;;12.48;;
26756;SDS011;23848;49.798;10.228;2023-03-03T03:04:04;24.10;;;12.40;;
26756;SDS011;23848;49.798;10.228;2023-03-03T03:06:40;22.27;;;12.32;;
26756;SDS011;23848;49.798;10.228;2023-03-03T03:09:09;20.73;;;12.82;;
26756;SDS011;23848;49.798;10.228;2023-03-03T03:11:38;23.45;;;12.80;;
26756;SDS011;23848;49.798;10.228;2023-03-03T03:14:07;20.00;;;11.80;;
26756;SDS011;23848;49.798;10.228;2023-03-03T03:16:36;23.90;;;12.30;;
26756;SDS011;23848;49.798;10.228;2023-03-03T03:19:05;21.52;;;12.30;;
26756;SDS011;23848;49.798;10.228;2023-03-03T03:21:34;23.35;;;12.40;;
26756;SDS011;23848;49.798;10.228;2023-03-03T03:24:02;21.83;;;11.90;;
26756;SDS011;23848;49.798;10.228;2023-03-03T03:26:30;23.98;;;13.43;;
26756;SDS011;23848;49.798;10.228;2023-03-03T03:28:59;26.77;;;13.40;;
26756;SDS011;23848;49.798;10.228;2023-03-03T03:31:27;23.73;;;12.82;;
26756;SDS011;23848;49.798;10.228;2023-03-03T03:33:57;22.25;;;12.13;;
26756;SDS011;23848;49.798;10.228;2023-03-03T03:36:25;24.65;;;12.70;;
26756;SDS011;23848;49.798;10.228;2023-03-03T03:38:54;25.15;;;13.57;;
26756;SDS011;23848;49.798;10.228;2023-03-03T03:41:22;21.95;;;11.85;;
26756;SDS011;23848;49.798;10.228;2023-03-03T03:43:50;23.58;;;12.98;;
26756;SDS011;23848;49.798;10.228;2023-03-03T03:46:19;25.35;;;12.50;;
26756;SDS011;23848;49.798;10.228;2023-03-03T03:48:47;19.85;;;11.13;;
26756;SDS011;23848;49.798;10.228;2023-03-03T03:51:17;21.10;;;11.57;;
26756;SDS011;23848;49.798;10.228;2023-03-03T03:53:45;23.27;;;11.82;;
26756;SDS011;23848;49.798;10.228;2023-03-03T03:56:15;22.27;;;12.07;;
26756;SDS011;23848;49.798;10.228;2023-03-03T03:58:43;20.40;;;11.32;;
26756;SDS011;23848;49.798;10.228;2023-03-03T04:01:11;21.48;;;11.57;;
26756;SDS011;23848;49.798;10.228;2023-03-03T04:03:40;22.60;;;12.30;;
26756;SDS011;23848;49.798;10.228;2023-03-03T04:06:08;25.08;;;12.07;;
26756;SDS011;23848;49.798;10.228;2023-03-03T04:08:37;24.75;;;12.60;;
26756;SDS011;23848;49.798;10.228;2023-03-03T04:11:06;27.98;;;14.45;;
26756;SDS011;23848;49.798;10.228;2023-03-03T04:13:34;36.47;;;18.35;;
26756;SDS011;23848;49.798;10.228;2023-03-03T04:16:02;31.60;;;15.48;;
26756;SDS011;23848;49.798;10.228;2023-03-03T04:18:31;39.10;;;18.45;;
26756;SDS011;23848;49.798;10.228;2023-03-03T04:20:59;38.63;;;18.15;;
26756;SDS011;23848;49.798;10.228;2023-03-03T04:23:27;27.13;;;15.02;;
26756;SDS011;23848;49.798;10.228;2023-03-03T04:25:57;25.58;;;13.65;;
26756;SDS011;23848;49.798;10.228;2023-03-03T04:28:25;22.88;;;12.57;;
26756;SDS011;23848;49.798;10.228;2023-03-03T04:30:54;23.33;;;12.32;;
26756;SDS011;23848;49.798;10.228;2023-03-03T04:33:22;25.25;;;12.40;;
26756;SDS011;23848;49.798;10.228;2023-03-03T04:35:50;24.83;;;12.73;;
26756;SDS011;23848;49.798;10.228;2023-03-03T04:38:19;26.40;;;14.15;;
26756;SDS011;23848;49.798;10.228;2023-03-03T04:40:47;28.75;;;14.00;;
26756;SDS011;23848;49.798;10.228;2023-03-03T04:43:17;27.60;;;14.05;;
26756;SDS011;23848;49.798;10.228;2023-03-03T04:45:46;22.85;;;12.20;;
26756;SDS011;23848;49.798;10.228;2023-03-03T04:48:14;24.48;;;13.00;;
26756;SDS011;23848;49.798;10.228;2023-03-03T04:50:43;24.65;;;13.55;;
26756;SDS011;23848;49.798;10.228;2023-03-03T04:53:12;23.25;;;12.00;;
26756;SDS011;23848;49.798;10.228;2023-03-03T04:55:40;24.15;;;12.60;;
26756;SDS011;23848;49.798;10.228;2023-03-03T04:58:08;24.92;;;12.93;;
26756;SDS011;23848;49.798;10.228;2023-03-03T05:00:38;21.67;;;12.43;;
26756;SDS011;23848;49.798;10.228;2023-03-03T05:03:06;24.98;;;12.77;;
26756;SDS011;23848;49.798;10.228;2023-03-03T05:05:35;25.70;;;13.20;;
26756;SDS011;23848;49.798;10.228;2023-03-03T05:08:03;22.65;;;12.50;;
26756;SDS011;23848;49.798;10.228;2023-03-03T05:10:32;27.75;;;14.02;;
26756;SDS011;23848;49.798;10.228;2023-03-03T05:13:00;22.70;;;12.00;;
26756;SDS011;23848;49.798;10.228;2023-03-03T05:15:30;27.65;;;13.23;;
26756;SDS011;23848;49.798;10.228;2023-03-03T05:17:59;22.70;;;12.15;;
26756;SDS011;23848;49.798;10.228;2023-03-03T05:20:28;23.17;;;12.13;;
26756;SDS011;23848;49.798;10.228;2023-03-03T05:22:56;25.95;;;12.73;;
26756;SDS011;23848;49.798;10.228;2023-03-03T05:25:26;25.40;;;12.63;;
26756;SDS011;23848;49.798;10.228;2023-03-03T05:27:55;23.20;;;12.75;;
26756;SDS011;23848;49.798;10.228;2023-03-03T05:30:23;28.35;;;13.18;;
26756;SDS011;23848;49.798;10.228;2023-03-03T05:32:51;23.42;;;12.32;;
26756;SDS011;23848;49.798;10.228;2023-03-03T05:35:21;28.58;;;13.68;;
26756;SDS011;23848;49.798;10.228;2023-03-03T05:37:49;26.90;;;12.80;;
26756;SDS011;23848;49.798;10.228;2023-03-03T05:40:18;24.20;;;12.70;;
26756;SDS011;23848;49.798;10.228;2023-03-03T05:42:46;26.63;;;13.63;;
26756;SDS011;23848;49.798;10.228;2023-03-03T05:45:15;24.73;;;13.00;;
26756;SDS011;23848;49.798;10.228;2023-03-03T05:47:45;28.17;;;13.45;;
26756;SDS011;23848;49.798;10.228;2023-03-03T05:50:14;27.35;;;13.10;;
26756;SDS011;23848;49.798;10.228;2023-03-03T05:52:43;25.85;;;13.00;;
26756;SDS011;23848;49.798;10.228;2023-03-03T05:55:12;24.27;;;13.40;;
26756;SDS011;23848;49.798;10.228;2023-03-03T05:57:40;25.50;;;13.40;;
26756;SDS011;23848;49.798;10.228;2023-03-03T06:00:09;28.45;;;14.60;;
26756;SDS011;23848;49.798;10.228;2023-03-03T06:02:37;25.60;;;13.48;;
26756;SDS011;23848;49.798;10.228;2023-03-03T06:05:06;25.17;;;13.52;;
26756;SDS011;23848;49.798;10.228;2023-03-03T06:07:35;31.17;;;17.08;;
26756;SDS011;23848;49.798;10.228;2023-03-03T06:10:05;33.85;;;18.92;;
26756;SDS011;23848;49.798;10.228;2023-03-03T06:12:36;26.48;;;15.50;;
26756;SDS011;23848;49.798;10.228;2023-03-03T06:15:06;29.50;;;15.00;;
26756;SDS011;23848;49.798;10.228;2023-03-03T06:17:35;25.13;;;14.13;;
26756;SDS011;23848;49.798;10.228;2023-03-03T06:20:04;30.65;;;16.17;;
26756;SDS011;23848;49.798;10.228;2023-03-03T06:22:33;31.33;;;14.95;;
26756;SDS011;23848;49.798;10.228;2023-03-03T06:25:01;28.00;;;14.82;;
26756;SDS011;23848;49.798;10.228;2023-03-03T06:27:31;27.98;;;14.70;;
26756;SDS011;23848;49.798;10.228;2023-03-03T06:29:59;26.77;;;14.75;;
26756;SDS011;23848;49.798;10.228;2023-03-03T06:32:28;30.35;;;15.02;;
26756;SDS011;23848;49.798;10.228;2023-03-03T06:34:56;27.85;;;15.52;;
26756;SDS011;23848;49.798;10.228;2023-03-03T06:37:24;30.58;;;14.93;;
26756;SDS011;23848;49.798;10.228;2023-03-03T06:39:53;26.73;;;14.77;;
26756;SDS011;23848;49.798;10.228;2023-03-03T06:42:21;31.17;;;15.60;;
26756;SDS011;23848;49.798;10.228;2023-03-03T06:44:51;29.23;;;17.50;;
26756;SDS011;23848;49.798;10.228;2023-03-03T06:47:19;31.42;;;17.80;;
26756;SDS011;23848;49.798;10.228;2023-03-03T06:49:48;32.80;;;18.55;;
26756;SDS011;23848;49.798;10.228;2023-03-03T06:52:17;32.88;;;16.20;;
26756;SDS011;23848;49.798;10.228;2023-03-03T06:54:46;31.20;;;15.38;;
26756;SDS011;23848;49.798;10.228;2023-03-03T06:57:15;26.27;;;14.35;;
26756;SDS011;23848;49.798;10.228;2023-03-03T06:59:45;36.80;;;15.02;;
26756;SDS011;23848;49.798;10.228;2023-03-03T07:02:16;35.03;;;14.77;;
26756;SDS011;23848;49.798;10.228;2023-03-03T07:04:44;29.58;;;14.52;;
26756;SDS011;23848;49.798;10.228;2023-03-03T07:07:15;29.33;;;14.70;;
26756;SDS011;23848;49.798;10.228;2023-03-03T07:09:44;28.30;;;14.85;;
26756;SDS011;23848;49.798;10.228;2023-03-03T07:12:14;29.10;;;15.60;;
26756;SDS011;23848;49.798;10.228;2023-03-03T07:14:44;37.55;;;19.88;;
26756;SDS011;23848;49.798;10.228;2023-03-03T07:17:18;48.22;;;26.77;;
26756;SDS011;23848;49.798;10.228;2023-03-03T07:19:47;41.03;;;22.15;;
26756;SDS011;23848;49.798;10.228;2023-03-03T07:22:16;38.42;;;22.60;;
26756;SDS011;23848;49.798;10.228;2023-03-03T07:24:45;40.72;;;20.85;;
26756;SDS011;23848;49.798;10.228;2023-03-03T07:27:19;37.30;;;19.80;;
26756;SDS011;23848;49.798;10.228;2023-03-03T07:29:50;39.78;;;21.85;;
26756;SDS011;23848;49.798;10.228;2023-03-03T07:32:25;41.08;;;23.02;;
26756;SDS011;23848;49.798;10.228;2023-03-03T07:34:54;52.90;;;25.15;;
26756;SDS011;23848;49.798;10.228;2023-03-03T07:37:26;62.28;;;27.33;;
26756;SDS011;23848;49.798;10.228;2023-03-03T07:39:56;51.85;;;25.92;;
26756;SDS011;23848;49.798;10.228;2023-03-03T07:42:25;48.80;;;22.92;;
26756;SDS011;23848;49.798;10.228;2023-03-03T07:44:54;47.33;;;22.35;;
26756;SDS011;23848;49.798;10.228;2023-03-03T07:47:25;41.58;;;21.38;;
26756;SDS011;23848;49.798;10.228;2023-03-03T07:49:55;44.65;;;21.30;;
26756;SDS011;23848;49.798;10.228;2023-03-03T07:52:25;42.95;;;21.90;;
26756;SDS011;23848;49.798;10.228;2023-03-03T07:54:54;48.75;;;24.90;;
26756;SDS011;23848;49.798;10.228;2023-03-03T07:57:24;42.00;;;22.00;;
26756;SDS011;23848;49.798;10.228;2023-03-03T07:59:53;42.33;;;20.70;;
26756;SDS011;23848;49.798;10.228;2023-03-03T08:02:32;44.35;;;20.52;;
26756;SDS011;23848;49.798;10.228;2023-03-03T08:05:11;44.05;;;21.38;;
26756;SDS011;23848;49.798;10.228;2023-03-03T08:07:48;46.28;;;22.67;;
26756;SDS011;23848;49.798;10.228;2023-03-03T08:10:26;42.78;;;21.48;;
26756;SDS011;23848;49.798;10.228;2023-03-03T08:12:57;38.17;;;20.13;;
26756;SDS011;23848;49.798;10.228;2023-03-03T08:15:29;39.45;;;19.88;;
26756;SDS011;23848;49.798;10.228;2023-03-03T08:17:59;47.28;;;21.55;;
26756;SDS011;23848;49.798;10.228;2023-03-03T08:20:36;40.28;;;20.70;;
26756;SDS011;23848;49.798;10.228;2023-03-03T08:23:06;42.63;;;20.58;;
26756;SDS011;23848;49.798;10.228;2023-03-03T08:25:34;41.33;;;19.67;;
26756;SDS011;23848;49.798;10.228;2023-03-03T08:28:03;43.95;;;21.00;;
26756;SDS011;23848;49.798;10.228;2023-03-03T08:30:31;41.30;;;19.85;;
26756;SDS011;23848;49.798;10.228;2023-03-03T08:33:01;39.95;;;19.95;;
26756;SDS011;23848;49.798;10.228;2023-03-03T08:35:29;40.35;;;18.70;;
26756;SDS011;23848;49.798;10.228;2023-03-03T08:37:58;42.38;;;19.98;;
26756;SDS011;23848;49.798;10.228;2023-03-03T08:40:26;38.95;;;19.63;;
26756;SDS011;23848;49.798;10.228;2023-03-03T08:42:54;44.30;;;22.45;;
26756;SDS011;23848;49.798;10.228;2023-03-03T08:45:23;38.25;;;19.95;;
26756;SDS011;23848;49.798;10.228;2023-03-03T08:47:52;35.65;;;19.45;;
26756;SDS011;23848;49.798;10.228;2023-03-03T08:50:22;41.20;;;20.00;;
26756;SDS011;23848;49.798;10.228;2023-03-03T08:52:50;36.75;;;20.15;;
26756;SDS011;23848;49.798;10.228;2023-03-03T08:55:19;34.60;;;20.02;;
26756;SDS011;23848;49.798;10.228;2023-03-03T08:57:47;36.80;;;20.23;;
26756;SDS011;23848;49.798;10.228;2023-03-03T09:00:16;37.53;;;19.98;;
26756;SDS011;23848;49.798;10.228;2023-03-03T09:02:44;34.85;;;16.67;;
26756;SDS011;23848;49.798;10.228;2023-03-03T09:05:13;34.67;;;17.50;;
26756;SDS011;23848;49.798;10.228;2023-03-03T09:07:44;34.17;;;19.33;;
26756;SDS011;23848;49.798;10.228;2023-03-03T09:10:14;32.08;;;17.02;;
26756;SDS011;23848;49.798;10.228;2023-03-03T09:12:43;36.90;;;19.80;;
26756;SDS011;23848;49.798;10.228;2023-03-03T09:15:14;34.72;;;19.27;;
26756;SDS011;23848;49.798;10.228;2023-03-03T09:17:44;35.53;;;19.13;;
26756;SDS011;23848;49.798;10.228;2023-03-03T09:20:23;34.97;;;19.25;;
26756;SDS011;23848;49.798;10.228;2023-03-03T09:22:53;35.42;;;17.05;;
26756;SDS011;23848;49.798;10.228;2023-03-03T09:25:24;33.80;;;18.63;;
26756;SDS011;23848;49.798;10.228;2023-03-03T09:27:53;34.70;;;18.30;;
26756;SDS011;23848;49.798;10.228;2023-03-03T09:30:31;35.95;;;19.73;;
26756;SDS011;23848;49.798;10.228;2023-03-03T09:33:01;32.40;;;18.75;;
26756;SDS011;23848;49.798;10.228;2023-03-03T09:35:44;36.85;;;19.20;;
26756;SDS011;23848;49.798;10.228;2023-03-03T09:38:18;32.10;;;18.23;;
26756;SDS011;23848;49.798;10.228;2023-03-03T09:40:51;30.88;;;17.90;;
26756;SDS011;23848;49.798;10.228;2023-03-03T09:43:23;36.80;;;20.20;;
26756;SDS011;23848;49.798;10.228;2023-03-03T09:45:59;34.38;;;18.60;;
26756;SDS011;23848;49.798;10.228;2023-03-03T09:48:39;33.75;;;19.00;;
26756;SDS011;23848;49.798;10.228;2023-03-03T09:51:11;29.35;;;17.73;;
26756;SDS011;23848;49.798;10.228;2023-03-03T09:56:32;35.60;;;18.90;;
26756;SDS011;23848;49.798;10.228;2023-03-03T10:01:54;34.92;;;18.80;;
26756;SDS011;23848;49.798;10.228;2023-03-03T10:04:34;33.42;;;19.23;;
26756;SDS011;23848;49.798;10.228;2023-03-03T10:07:11;35.40;;;18.40;;
26756;SDS011;23848;49.798;10.228;2023-03-03T10:09:45;30.77;;;17.75;;
26756;SDS011;23848;49.798;10.228;2023-03-03T10:12:18;30.42;;;17.88;;
26756;SDS011;23848;49.798;10.228;2023-03-03T10:15:02;32.13;;;17.40;;
26756;SDS011;23848;49.798;10.228;2023-03-03T10:17:40;29.92;;;18.42;;
26756;SDS011;23848;49.798;10.228;2023-03-03T10:20:16;34.97;;;19.15;;
26756;SDS011;23848;49.798;10.228;2023-03-03T10:22:48;31.15;;;19.02;;
26756;SDS011;23848;49.798;10.228;2023-03-03T10:25:25;33.78;;;17.75;;
26756;SDS011;23848;49.798;10.228;2023-03-03T10:30:45;33.22;;;18.95;;
26756;SDS011;23848;49.798;10.228;2023-03-03T10:33:35;28.70;;;16.42;;
26756;SDS011;23848;49.798;10.228;2023-03-03T10:36:08;29.77;;;17.90;;
26756;SDS011;23848;49.798;10.228;2023-03-03T10:38:44;31.40;;;17.43;;
26756;SDS011;23848;49.798;10.228;2023-03-03T10:44:07;28.25;;;16.20;;
26756;SDS011;23848;49.798;10.228;2023-03-03T10:46:49;28.92;;;16.65;;
26756;SDS011;23848;49.798;10.228;2023-03-03T10:49:25;27.70;;;16.02;;
26756;SDS011;23848;49.798;10.228;2023-03-03T10:51:59;26.95;;;15.52;;
26756;SDS011;23848;49.798;10.228;2023-03-03T10:54:37;27.55;;;15.30;;
26756;SDS011;23848;49.798;10.228;2023-03-03T10:57:13;23.90;;;15.32;;
26756;SDS011;23848;49.798;10.228;2023-03-03T11:02:37;30.17;;;15.68;;
26756;SDS011;23848;49.798;10.228;2023-03-03T11:05:17;28.90;;;16.08;;
26756;SDS011;23848;49.798;10.228;2023-03-03T11:07:49;25.00;;;14.48;;
26756;SDS011;23848;49.798;10.228;2023-03-03T11:10:36;28.65;;;16.42;;
26756;SDS011;23848;49.798;10.228;2023-03-03T11:13:09;22.17;;;14.52;;
26756;SDS011;23848;49.798;10.228;2023-03-03T11:15:54;27.15;;;15.48;;
26756;SDS011;23848;49.798;10.228;2023-03-03T11:18:36;22.83;;;13.73;;
26756;SDS011;23848;49.798;10.228;2023-03-03T11:21:11;22.30;;;13.50;;
26756;SDS011;23848;49.798;10.228;2023-03-03T11:23:49;25.67;;;14.50;;
26756;SDS011;23848;49.798;10.228;2023-03-03T11:26:22;21.85;;;13.52;;
26756;SDS011;23848;49.798;10.228;2023-03-03T11:29:05;26.02;;;15.32;;
26756;SDS011;23848;49.798;10.228;2023-03-03T11:31:40;20.80;;;13.05;;
26756;SDS011;23848;49.798;10.228;2023-03-03T11:34:15;21.90;;;13.07;;
26756;SDS011;23848;49.798;10.228;2023-03-03T11:36:47;22.08;;;13.40;;
26756;SDS011;23848;49.798;10.228;2023-03-03T11:39:17;23.42;;;14.07;;
26756;SDS011;23848;49.798;10.228;2023-03-03T11:41:49;20.65;;;12.40;;
26756;SDS011;23848;49.798;10.228;2023-03-03T11:44:23;24.92;;;14.15;;
26756;SDS011;23848;49.798;10.228;2023-03-03T11:46:55;20.23;;;12.57;;
26756;SDS011;23848;49.798;10.228;2023-03-03T11:49:27;20.65;;;12.73;;
26756;SDS011;23848;49.798;10.228;2023-03-03T11:52:00;19.20;;;11.52;;
26756;SDS011;23848;49.798;10.228;2023-03-03T11:54:31;22.85;;;12.45;;
26756;SDS011;23848;49.798;10.228;2023-03-03T11:57:08;20.75;;;12.23;;
26756;SDS011;23848;49.798;10.228;2023-03-03T11:59:43;22.13;;;12.18;;
26756;SDS011;23848;49.798;10.228;2023-03-03T12:02:20;20.25;;;12.43;;
26756;SDS011;23848;49.798;10.228;2023-03-03T12:04:52;22.50;;;12.88;;
26756;SDS011;23848;49.798;10.228;2023-03-03T12:07:24;20.58;;;12.35;;
26756;SDS011;23848;49.798;10.228;2023-03-03T12:09:58;21.35;;;12.68;;
26756;SDS011;23848;49.798;10.228;2023-03-03T12:12:30;20.40;;;12.38;;
26756;SDS011;23848;49.798;10.228;2023-03-03T12:15:05;20.20;;;12.48;;
26756;SDS011;23848;49.798;10.228;2023-03-03T12:17:40;21.88;;;12.48;;
26756;SDS011;23848;49.798;10.228;2023-03-03T12:20:14;20.70;;;12.20;;
26756;SDS011;23848;49.798;10.228;2023-03-03T12:22:47;20.25;;;11.82;;
26756;SDS011;23848;49.798;10.228;2023-03-03T12:25:32;19.02;;;11.65;;
26756;SDS011;23848;49.798;10.228;2023-03-03T12:28:03;20.10;;;11.60;;
26756;SDS011;23848;49.798;10.228;2023-03-03T12:30:38;19.63;;;10.85;;
26756;SDS011;23848;49.798;10.228;2023-03-03T12:33:16;20.73;;;12.25;;
26756;SDS011;23848;49.798;10.228;2023-03-03T12:35:50;20.42;;;12.10;;
26756;SDS011;23848;49.798;10.228;2023-03-03T12:38:24;19.33;;;11.35;;
26756;SDS011;23848;49.798;10.228;2023-03-03T12:40:54;17.80;;;10.75;;
26756;SDS011;23848;49.798;10.228;2023-03-03T12:43:30;19.17;;;10.63;;
26756;SDS011;23848;49.798;10.228;2023-03-03T12:46:04;18.65;;;10.90;;
26756;SDS011;23848;49.798;10.228;2023-03-03T12:48:37;17.73;;;11.38;;
26756;SDS011;23848;49.798;10.228;2023-03-03T12:51:11;16.15;;;9.98;;
26756;SDS011;23848;49.798;10.228;2023-03-03T12:53:45;18.63;;;10.70;;
26756;SDS011;23848;49.798;10.228;2023-03-03T12:56:17;18.77;;;10.90;;
26756;SDS011;23848;49.798;10.228;2023-03-03T12:58:49;17.50;;;10.10;;
26756;SDS011;23848;49.798;10.228;2023-03-03T13:01:24;18.98;;;11.23;;
26756;SDS011;23848;49.798;10.228;2023-03-03T13:03:58;18.95;;;10.55;;
26756;SDS011;23848;49.798;10.228;2023-03-03T13:09:03;14.93;;;9.63;;
26756;SDS011;23848;49.798;10.228;2023-03-03T13:11:36;15.38;;;9.68;;
26756;SDS011;23848;49.798;10.228;2023-03-03T13:14:14;17.58;;;10.07;;
26756;SDS011;23848;49.798;10.228;2023-03-03T13:16:47;16.13;;;9.45;;
26756;SDS011;23848;49.798;10.228;2023-03-03T13:19:17;17.52;;;10.10;;
26756;SDS011;23848;49.798;10.228;2023-03-03T13:21:48;15.23;;;9.52;;
26756;SDS011;23848;49.798;10.228;2023-03-03T13:24:20;13.18;;;7.85;;
26756;SDS011;23848;49.798;10.228;2023-03-03T13:26:52;14.40;;;9.13;;
26756;SDS011;23848;49.798;10.228;2023-03-03T13:29:24;14.32;;;8.93;;
26756;SDS011;23848;49.798;10.228;2023-03-03T13:31:54;15.57;;;9.13;;
26756;SDS011;23848;49.798;10.228;2023-03-03T13:34:26;13.15;;;8.95;;
26756;SDS011;23848;49.798;10.228;2023-03-03T13:37:00;15.30;;;8.82;;
26756;SDS011;23848;49.798;10.228;2023-03-03T13:39:33;17.30;;;8.70;;
26756;SDS011;23848;49.798;10.228;2023-03-03T13:42:07;14.95;;;8.77;;
26756;SDS011;23848;49.798;10.228;2023-03-03T13:44:41;12.85;;;8.10;;
26756;SDS011;23848;49.798;10.228;2023-03-03T13:47:12;13.60;;;8.40;;
26756;SDS011;23848;49.798;10.228;2023-03-03T13:49:44;15.38;;;8.90;;
26756;SDS011;23848;49.798;10.228;2023-03-03T13:52:19;13.57;;;8.23;;
26756;SDS011;23848;49.798;10.228;2023-03-03T13:54:58;16.65;;;8.70;;
26756;SDS011;23848;49.798;10.228;2023-03-03T13:57:38;13.18;;;8.35;;
26756;SDS011;23848;49.798;10.228;2023-03-03T14:00:15;10.93;;;6.47;;
26756;SDS011;23848;49.798;10.228;2023-03-03T14:02:50;13.32;;;7.82;;
26756;SDS011;23848;49.798;10.228;2023-03-03T14:05:22;14.73;;;8.27;;
26756;SDS011;23848;49.798;10.228;2023-03-03T14:07:55;13.63;;;8.32;;
26756;SDS011;23848;49.798;10.228;2023-03-03T14:10:26;12.82;;;7.50;;
26756;SDS011;23848;49.798;10.228;2023-03-03T14:15:30;14.32;;;8.32;;
26756;SDS011;23848;49.798;10.228;2023-03-03T14:18:04;11.88;;;7.63;;
26756;SDS011;23848;49.798;10.228;2023-03-03T14:20:36;12.35;;;7.43;;
26756;SDS011;23848;49.798;10.228;2023-03-03T14:23:11;15.38;;;7.72;;
26756;SDS011;23848;49.798;10.228;2023-03-03T14:25:53;13.70;;;6.72;;
26756;SDS011;23848;49.798;10.228;2023-03-03T14:28:22;13.73;;;8.05;;
26756;SDS011;23848;49.798;10.228;2023-03-03T14:30:52;12.88;;;7.53;;
26756;SDS011;23848;49.798;10.228;2023-03-03T14:33:25;13.25;;;8.15;;
26756;SDS011;23848;49.798;10.228;2023-03-03T14:36:05;14.85;;;9.05;;
26756;SDS011;23848;49.798;10.228;2023-03-03T14:38:39;12.45;;;7.47;;
26756;SDS011;23848;49.798;10.228;2023-03-03T14:41:19;14.48;;;8.25;;
26756;SDS011;23848;49.798;10.228;2023-03-03T14:43:58;18.27;;;9.23;;
26756;SDS011;23848;49.798;10.228;2023-03-03T14:46:31;14.48;;;8.00;;
26756;SDS011;23848;49.798;10.228;2023-03-03T14:49:00;15.70;;;8.98;;
26756;SDS011;23848;49.798;10.228;2023-03-03T14:51:32;15.43;;;9.60;;
26756;SDS011;23848;49.798;10.228;2023-03-03T14:54:07;15.82;;;9.18;;
26756;SDS011;23848;49.798;10.228;2023-03-03T14:56:37;14.48;;;8.20;;